createdAt,value
2022-11-12T00:02:59.459Z,12.15
2022-11-12T00:05:49.531Z,11.73
2022-11-12T00:08:38.171Z,12.75
2022-11-12T00:11:25.617Z,12.25
2022-11-12T00:14:12.986Z,12.15
2022-11-12T00:17:01.370Z,10.80
2022-11-12T00:19:49.188Z,12.70
2022-11-12T00:22:36.667Z,13.10
2022-11-12T00:25:24.522Z,12.25
2022-11-12T00:28:12.807Z,11.77
2022-11-12T00:31:00.277Z,12.00
2022-11-12T00:33:48.956Z,11.82
2022-11-12T00:36:36.775Z,12.32
2022-11-12T00:39:23.989Z,11.70
2022-11-12T00:42:11.566Z,12.23
2022-11-12T00:44:58.330Z,12.45
2022-11-12T00:47:45.787Z,11.43
2022-11-12T00:50:34.051Z,12.98
2022-11-12T00:53:21.634Z,12.45
2022-11-12T00:56:10.769Z,11.98
2022-11-12T00:59:00.035Z,11.65
2022-11-12T01:01:47.168Z,10.75
2022-11-12T01:04:35.331Z,11.35
2022-11-12T01:07:23.997Z,10.68
2022-11-12T01:10:12.912Z,10.40
2022-11-12T01:13:00.195Z,11.75
2022-11-12T01:15:47.635Z,11.98
2022-11-12T01:18:35.147Z,10.20
2022-11-12T01:21:23.891Z,10.48
2022-11-12T01:24:12.894Z,12.02
2022-11-12T01:27:00.632Z,11.85
2022-11-12T01:29:47.915Z,11.73
2022-11-12T01:32:38.443Z,10.95
2022-11-12T01:35:25.447Z,10.38
2022-11-12T01:38:12.997Z,10.15
2022-11-12T01:41:01.831Z,11.15
2022-11-12T01:43:49.577Z,11.05
2022-11-12T01:46:48.237Z,10.10
2022-11-12T01:49:53.152Z,10.65
2022-11-12T01:52:49.669Z,10.35
2022-11-12T01:55:39.263Z,10.35
2022-11-12T01:58:33.472Z,10.32
2022-11-12T02:01:20.879Z,10.35
2022-11-12T02:04:08.543Z,10.30
2022-11-12T02:06:59.645Z,10.30
2022-11-12T02:09:47.083Z,11.68
2022-11-12T02:12:52.620Z,10.32
2022-11-12T02:15:42.855Z,9.80
2022-11-12T02:18:30.618Z,10.05
2022-11-12T02:21:21.774Z,10.23
2022-11-12T02:24:36.952Z,10.70
2022-11-12T02:27:25.375Z,10.60
2022-11-12T02:30:13.778Z,11.27
2022-11-12T02:33:01.665Z,11.13
2022-11-12T02:35:49.082Z,10.93
2022-11-12T02:38:37.472Z,11.68
2022-11-12T02:41:25.686Z,11.02
2022-11-12T02:44:12.650Z,11.05
2022-11-12T02:47:00.112Z,11.43
2022-11-12T02:49:47.292Z,11.52
2022-11-12T02:52:34.953Z,11.55
2022-11-12T02:55:23.528Z,10.05
2022-11-12T02:58:11.293Z,10.75
2022-11-12T03:00:59.255Z,10.68
2022-11-12T03:03:46.598Z,11.80
2022-11-12T03:06:33.790Z,10.90
2022-11-12T03:09:21.288Z,11.00
2022-11-12T03:12:09.883Z,10.25
2022-11-12T03:14:57.198Z,10.55
2022-11-12T03:17:44.062Z,10.90
2022-11-12T03:20:31.498Z,10.52
2022-11-12T03:23:18.929Z,10.02
2022-11-12T03:26:06.881Z,10.00
2022-11-12T03:28:55.231Z,10.30
2022-11-12T03:31:43.416Z,10.95
2022-11-12T03:34:30.532Z,10.23
2022-11-12T03:37:18.282Z,10.32
2022-11-12T03:40:06.886Z,9.82
2022-11-12T03:42:55.656Z,10.60
2022-11-12T03:45:44.209Z,10.82
2022-11-12T03:48:31.608Z,9.43
2022-11-12T03:51:19.118Z,11.10
2022-11-12T03:54:06.951Z,9.95
2022-11-12T03:56:54.217Z,11.63
2022-11-12T03:59:41.614Z,10.82
2022-11-12T04:02:30.196Z,10.38
2022-11-12T04:05:35.514Z,10.85
2022-11-12T04:08:37.393Z,11.68
2022-11-12T04:11:26.112Z,10.45
2022-11-12T04:14:12.546Z,11.43
2022-11-12T04:17:16.968Z,12.07
2022-11-12T04:20:23.646Z,12.63
2022-11-12T04:23:11.375Z,10.85
2022-11-12T04:26:21.490Z,10.65
2022-11-12T04:29:26.841Z,11.93
2022-11-12T04:32:14.483Z,11.98
2022-11-12T04:35:02.257Z,13.35
2022-11-12T04:37:51.279Z,14.63
2022-11-12T04:40:55.995Z,13.52
2022-11-12T04:44:00.692Z,14.18
2022-11-12T04:46:48.157Z,15.18
2022-11-12T04:49:35.129Z,15.40
2022-11-12T04:52:22.624Z,15.07
2022-11-12T04:55:12.157Z,16.23
2022-11-12T04:58:01.033Z,16.05
2022-11-12T05:00:48.774Z,15.88
2022-11-12T05:03:36.264Z,16.92
2022-11-12T05:06:40.820Z,14.43
2022-11-12T05:09:30.179Z,16.15
2022-11-12T05:12:18.428Z,14.75
2022-11-12T05:15:07.694Z,15.60
2022-11-12T05:17:54.637Z,14.63
2022-11-12T05:20:41.967Z,15.70
2022-11-12T05:23:28.932Z,14.45
2022-11-12T05:26:16.389Z,14.93
2022-11-12T05:29:08.763Z,15.07
2022-11-12T05:31:56.948Z,15.45
2022-11-12T05:34:44.190Z,15.20
2022-11-12T05:37:31.232Z,16.50
2022-11-12T05:45:11.097Z,14.05
2022-11-12T05:47:58.323Z,14.65
2022-11-12T05:51:11.197Z,15.10
2022-11-12T05:53:52.975Z,16.42
2022-11-12T05:56:41.065Z,17.05
2022-11-12T05:59:27.951Z,17.65
2022-11-12T06:02:16.764Z,16.30
2022-11-12T06:05:04.432Z,18.92
2022-11-12T06:07:51.575Z,18.27
2022-11-12T06:10:38.686Z,15.32
2022-11-12T06:13:27.344Z,18.48
2022-11-12T06:16:14.476Z,16.52
2022-11-12T06:19:03.281Z,16.50
2022-11-12T06:21:50.140Z,18.23
2022-11-12T06:24:38.098Z,17.05
2022-11-12T06:27:25.304Z,19.27
2022-11-12T06:30:13.804Z,19.17
2022-11-12T06:33:00.778Z,17.80
2022-11-12T06:35:57.019Z,17.90
2022-11-12T06:38:45.398Z,18.00
2022-11-12T06:41:33.046Z,17.00
2022-11-12T06:44:22.408Z,16.10
2022-11-12T06:47:10.668Z,18.05
2022-11-12T06:54:51.241Z,18.98
2022-11-12T06:57:38.810Z,21.02
2022-11-12T07:00:26.160Z,24.33
2022-11-12T07:03:17.160Z,22.83
2022-11-12T07:06:10.813Z,23.23
2022-11-12T07:08:58.056Z,25.27
2022-11-12T07:11:46.793Z,26.63
2022-11-12T07:14:33.749Z,25.20
2022-11-12T07:17:21.004Z,25.30
2022-11-12T07:20:10.596Z,24.88
2022-11-12T07:23:02.421Z,27.40
2022-11-12T07:25:58.334Z,23.70
2022-11-12T07:28:48.381Z,27.45
2022-11-12T07:31:35.632Z,23.20
2022-11-12T07:34:23.111Z,25.25
2022-11-12T07:37:10.247Z,24.30
2022-11-12T07:39:57.812Z,23.02
2022-11-12T07:42:45.080Z,24.10
2022-11-12T07:45:33.846Z,22.83
2022-11-12T07:48:21.270Z,22.25
2022-11-12T07:51:14.038Z,21.98
2022-11-12T07:54:01.842Z,21.35
2022-11-12T07:56:49.630Z,20.35
2022-11-12T07:59:39.543Z,20.25
2022-11-12T08:02:32.599Z,21.40
2022-11-12T08:05:21.524Z,21.75
2022-11-12T08:08:09.041Z,21.52
2022-11-12T08:10:57.659Z,21.55
2022-11-12T08:13:45.157Z,22.65
2022-11-12T08:16:33.270Z,22.02
2022-11-12T08:24:12.772Z,22.60
2022-11-12T08:26:59.772Z,21.10
2022-11-12T08:29:47.189Z,24.15
2022-11-12T08:32:34.185Z,23.15
2022-11-12T08:35:21.593Z,23.15
2022-11-12T08:38:10.779Z,20.17
2022-11-12T08:41:02.965Z,26.33
2022-11-12T08:43:50.066Z,24.10
2022-11-12T08:46:37.674Z,25.65
2022-11-12T08:49:24.941Z,23.75
2022-11-12T08:52:12.511Z,26.08
2022-11-12T08:54:59.922Z,27.63
2022-11-12T08:57:48.823Z,26.52
2022-11-12T09:00:40.376Z,25.17
2022-11-12T09:03:27.815Z,28.70
2022-11-12T09:11:06.743Z,24.67
2022-11-12T09:13:56.056Z,25.65
2022-11-12T09:16:43.485Z,26.50
2022-11-12T09:19:30.321Z,28.15
2022-11-12T09:22:17.894Z,26.67
2022-11-12T09:25:05.927Z,25.38
2022-11-12T09:27:53.777Z,27.92
2022-11-12T09:30:46.673Z,28.13
2022-11-12T09:33:35.468Z,26.90
2022-11-12T09:36:22.756Z,25.23
2022-11-12T09:39:10.508Z,28.77
2022-11-12T09:42:01.933Z,26.60
2022-11-12T09:45:00.666Z,28.38
2022-11-12T09:47:58.436Z,28.77
2022-11-12T09:50:59.568Z,28.10
2022-11-12T09:53:55.951Z,28.73
2022-11-12T09:56:43.170Z,26.17
2022-11-12T09:59:33.814Z,25.80
2022-11-12T10:02:33.101Z,27.75
2022-11-12T10:07:00.579Z,28.80
2022-11-12T10:10:04.279Z,24.92
2022-11-12T10:13:14.229Z,26.48
2022-11-12T10:16:45.500Z,26.33
2022-11-12T10:20:05.534Z,25.38
2022-11-12T10:23:15.337Z,25.73
2022-11-12T10:26:14.857Z,26.15
2022-11-12T10:29:15.307Z,27.52
2022-11-12T10:32:03.630Z,27.25
2022-11-12T10:34:51.441Z,27.33
2022-11-12T10:37:47.441Z,29.00
2022-11-12T10:45:29.964Z,25.55
2022-11-12T10:48:27.802Z,28.42
2022-11-12T10:51:30.704Z,27.33
2022-11-12T10:54:30.309Z,27.20
2022-11-12T10:57:24.812Z,27.00
2022-11-12T11:01:51.697Z,27.20
2022-11-12T11:04:40.508Z,25.65
2022-11-12T11:07:28.253Z,28.13
2022-11-12T11:10:27.763Z,27.85
2022-11-12T11:13:23.919Z,29.10
2022-11-12T11:16:16.365Z,28.77
2022-11-12T11:19:07.370Z,27.13
2022-11-12T11:22:16.396Z,26.17
2022-11-12T11:25:22.412Z,26.27
2022-11-12T11:28:23.326Z,27.25
2022-11-12T11:31:27.452Z,28.02
2022-11-12T11:34:29.933Z,26.92
2022-11-12T11:37:28.467Z,27.48
2022-11-12T11:40:28.155Z,27.45
2022-11-12T11:43:48.690Z,24.52
2022-11-12T11:46:59.657Z,24.77
2022-11-12T12:04:46.873Z,24.00
2022-11-12T12:07:47.859Z,25.35
2022-11-12T12:11:07.460Z,21.83
2022-11-12T12:14:17.311Z,25.60
2022-11-12T12:17:27.824Z,23.00
2022-11-12T12:20:30.325Z,22.63
2022-11-12T12:23:30.735Z,24.02
2022-11-12T12:26:25.188Z,21.40
2022-11-12T12:30:51.756Z,21.55
2022-11-12T12:33:48.200Z,18.23
2022-11-12T12:36:42.141Z,18.70
2022-11-12T12:39:47.746Z,17.92
2022-11-12T12:42:46.287Z,17.40
2022-11-12T12:45:43.386Z,17.95
2022-11-12T12:50:09.838Z,15.50
2022-11-12T12:53:16.666Z,17.55
2022-11-12T12:56:06.871Z,16.35
2022-11-12T12:58:55.256Z,16.20
2022-11-12T13:01:42.399Z,16.73
2022-11-12T13:04:54.105Z,16.25
2022-11-12T13:07:45.220Z,18.95
2022-11-12T13:10:54.866Z,16.40
2022-11-12T13:13:42.044Z,17.85
2022-11-12T13:16:59.364Z,18.13
2022-11-12T13:20:31.784Z,20.13
2022-11-12T13:24:00.629Z,20.63
2022-11-12T13:26:53.912Z,19.15
2022-11-12T13:29:44.767Z,20.35
2022-11-12T13:32:41.922Z,19.88
2022-11-12T13:35:34.219Z,20.55
2022-11-12T13:38:21.679Z,19.88
2022-11-12T13:41:19.470Z,20.08
2022-11-12T13:44:17.895Z,29.45
2022-11-12T13:47:06.130Z,20.83
2022-11-12T13:49:53.471Z,18.40
2022-11-12T13:52:41.910Z,18.48
2022-11-12T13:55:29.096Z,19.90
2022-11-12T13:58:26.990Z,18.90
2022-11-12T14:02:53.736Z,18.60
2022-11-12T14:05:50.581Z,16.77
2022-11-12T14:09:04.561Z,17.95
2022-11-12T14:12:20.555Z,18.27
2022-11-12T14:15:32.863Z,19.50
2022-11-12T14:18:30.334Z,16.83
2022-11-12T14:21:20.326Z,20.08
2022-11-12T14:24:13.784Z,21.80
2022-11-12T14:27:00.873Z,21.25
2022-11-12T14:29:48.516Z,22.55
2022-11-12T14:32:40.973Z,20.75
2022-11-12T14:35:35.796Z,21.45
2022-11-12T14:38:30.349Z,21.05
2022-11-12T14:41:23.936Z,18.52
2022-11-12T14:44:20.256Z,20.67
2022-11-12T14:47:10.547Z,20.15
2022-11-12T14:49:58.882Z,19.60
2022-11-12T14:52:52.288Z,19.67
2022-11-12T15:00:44.159Z,22.25
2022-11-12T15:03:34.236Z,25.88
2022-11-12T15:06:30.951Z,37.22
2022-11-12T15:09:21.972Z,26.65
2022-11-12T15:13:50.982Z,29.92
2022-11-12T15:16:44.924Z,27.65
2022-11-12T15:19:33.416Z,23.17
2022-11-12T15:27:36.174Z,25.35
2022-11-12T15:30:28.242Z,24.60
2022-11-12T15:33:24.229Z,25.50
2022-11-12T15:36:20.192Z,25.52
2022-11-12T15:39:15.386Z,24.67
2022-11-12T15:42:07.667Z,24.00
2022-11-12T15:45:00.881Z,25.23
2022-11-12T15:47:48.836Z,26.08
2022-11-12T15:50:39.121Z,23.17
2022-11-12T15:53:26.501Z,28.02
2022-11-12T15:56:21.660Z,19.88
2022-11-12T15:59:15.164Z,21.35
2022-11-12T16:02:02.743Z,28.73
2022-11-12T16:04:49.791Z,28.85
2022-11-12T16:07:38.628Z,34.17
2022-11-12T16:10:26.588Z,44.75
2022-11-12T16:13:27.234Z,29.75
2022-11-12T16:17:53.982Z,30.92
2022-11-12T16:20:41.435Z,24.73
2022-11-12T16:23:30.023Z,20.88
2022-11-12T16:26:25.995Z,26.58
2022-11-12T16:29:14.898Z,28.02
2022-11-12T16:32:02.818Z,26.70
2022-11-12T16:34:49.896Z,20.40
2022-11-12T16:37:39.421Z,20.38
2022-11-12T16:40:31.138Z,20.48
2022-11-12T16:43:18.837Z,25.35
2022-11-12T16:51:01.397Z,27.75
2022-11-12T16:53:49.170Z,25.70
2022-11-12T16:56:38.748Z,22.33
2022-11-12T16:59:25.546Z,22.98
2022-11-12T17:02:16.540Z,21.23
2022-11-12T17:05:05.242Z,20.73
2022-11-12T17:07:58.716Z,21.98
2022-11-12T17:10:45.892Z,20.67
2022-11-12T17:13:34.954Z,21.58
2022-11-12T17:16:22.226Z,21.48
2022-11-12T17:19:11.997Z,20.65
2022-11-12T17:23:42.175Z,19.52
2022-11-12T17:26:30.180Z,18.00
2022-11-12T17:29:18.601Z,17.90
2022-11-12T17:33:49.173Z,20.73
2022-11-12T17:36:39.294Z,20.27
2022-11-12T17:39:29.446Z,17.52
2022-11-12T17:42:16.935Z,19.70
2022-11-12T17:45:06.875Z,19.73
2022-11-12T17:47:54.380Z,20.17
2022-11-12T17:50:41.797Z,22.10
2022-11-12T17:53:30.824Z,20.77
2022-11-12T17:56:23.676Z,20.95
2022-11-12T17:59:11.043Z,22.77
2022-11-12T18:02:00.034Z,23.17
2022-11-12T18:04:47.424Z,22.63
2022-11-12T18:07:34.916Z,21.27
2022-11-12T18:10:21.943Z,21.88
2022-11-12T18:13:09.333Z,21.73
2022-11-12T18:15:56.282Z,22.90
2022-11-12T18:18:45.853Z,22.42
2022-11-12T18:21:33.208Z,22.88
2022-11-12T18:24:20.811Z,23.75
2022-11-12T18:27:07.883Z,23.55
2022-11-12T18:29:55.161Z,21.45
2022-11-12T18:37:35.557Z,22.00
2022-11-12T18:40:23.235Z,19.20
2022-11-12T18:43:10.468Z,22.63
2022-11-12T18:46:00.448Z,21.60
2022-11-12T18:48:48.447Z,23.75
2022-11-12T18:51:36.270Z,23.73
2022-11-12T18:59:16.433Z,25.35
2022-11-12T19:02:03.851Z,24.17
2022-11-12T19:04:50.689Z,26.77
2022-11-12T19:07:38.296Z,26.05
2022-11-12T19:10:26.093Z,28.75
2022-11-12T19:13:13.625Z,29.33
2022-11-12T19:16:08.075Z,29.42
2022-11-12T19:18:55.883Z,32.22
2022-11-12T19:21:43.236Z,34.03
2022-11-12T19:24:31.319Z,34.05
2022-11-12T19:27:18.158Z,33.50
2022-11-12T19:30:07.143Z,32.72
2022-11-12T19:32:56.158Z,34.65
2022-11-12T19:35:43.985Z,33.38
2022-11-12T19:38:31.979Z,37.53
2022-11-12T19:41:20.242Z,30.60
2022-11-12T19:44:07.977Z,34.17
2022-11-12T19:51:45.663Z,33.42
2022-11-12T19:54:33.194Z,34.25
2022-11-12T19:57:20.288Z,34.83
2022-11-12T20:00:10.859Z,33.80
2022-11-12T20:02:59.050Z,33.20
2022-11-12T20:05:46.705Z,34.28
2022-11-12T20:08:36.253Z,31.85
2022-11-12T20:11:24.032Z,31.33
2022-11-12T20:14:11.214Z,33.72
2022-11-12T20:16:58.674Z,33.33
2022-11-12T20:19:45.659Z,32.85
2022-11-12T20:22:34.132Z,33.25
2022-11-12T20:25:22.963Z,32.88
2022-11-12T20:28:11.254Z,34.63
2022-11-12T20:31:03.694Z,32.20
2022-11-12T20:33:52.564Z,33.28
2022-11-12T20:36:39.652Z,34.13
2022-11-12T20:39:27.102Z,34.17
2022-11-12T20:42:15.883Z,33.50
2022-11-12T20:45:03.367Z,33.10
2022-11-12T20:47:50.303Z,32.20
2022-11-12T20:50:37.762Z,32.58
2022-11-12T20:53:25.098Z,32.75
2022-11-12T20:56:15.958Z,32.88
2022-11-12T20:59:04.786Z,32.15
2022-11-12T21:06:42.510Z,33.15
2022-11-12T21:09:30.013Z,35.17
2022-11-12T21:12:17.613Z,34.10
2022-11-12T21:15:07.579Z,34.63
2022-11-12T21:17:54.310Z,36.78
2022-11-12T21:20:41.865Z,33.03
2022-11-12T21:23:31.075Z,39.47
2022-11-12T21:26:20.776Z,38.58
2022-11-12T21:29:07.835Z,34.10
2022-11-12T21:31:56.499Z,36.67
2022-11-12T21:34:43.403Z,32.83
2022-11-12T21:37:30.855Z,35.63
2022-11-12T21:40:18.485Z,35.53
2022-11-12T21:43:07.180Z,34.65
2022-11-12T21:45:54.124Z,35.70
2022-11-12T21:48:43.318Z,33.72
2022-11-12T21:51:32.850Z,34.80
2022-11-12T21:54:20.049Z,33.13
2022-11-12T21:57:07.065Z,34.03
2022-11-12T22:00:00.201Z,34.20
2022-11-12T22:02:56.494Z,34.83
2022-11-12T22:05:45.112Z,31.25
2022-11-12T22:08:32.142Z,34.17
2022-11-12T22:11:20.295Z,32.25
2022-11-12T22:14:07.507Z,30.95
2022-11-12T22:16:55.003Z,36.28
2022-11-12T22:19:42.282Z,35.60
2022-11-12T22:22:30.996Z,33.28
2022-11-12T22:25:18.091Z,32.13
2022-11-12T22:28:06.023Z,32.78
2022-11-12T22:30:54.284Z,29.65
2022-11-12T22:33:41.962Z,29.13
2022-11-12T22:36:32.930Z,31.13
2022-11-12T22:39:21.938Z,30.63
2022-11-12T22:42:08.779Z,31.70
2022-11-12T22:44:56.255Z,30.77
2022-11-12T22:47:43.258Z,30.73
2022-11-12T22:50:30.872Z,30.42
2022-11-12T22:53:18.289Z,28.63
2022-11-12T22:56:10.271Z,29.20
2022-11-12T22:58:58.945Z,31.67
2022-11-12T23:01:47.024Z,31.40
2022-11-12T23:04:34.860Z,32.38
2022-11-12T23:07:22.230Z,29.50
2022-11-12T23:10:10.860Z,31.45
2022-11-12T23:12:59.326Z,32.92
2022-11-12T23:15:47.299Z,32.67
2022-11-12T23:18:34.362Z,31.08
2022-11-12T23:21:25.102Z,29.23
2022-11-12T23:24:12.673Z,31.05
2022-11-12T23:27:01.248Z,31.63
2022-11-12T23:29:49.835Z,31.23
2022-11-12T23:32:36.698Z,31.13
2022-11-12T23:35:24.026Z,30.73
2022-11-12T23:38:10.980Z,30.20
2022-11-12T23:40:58.658Z,27.80
2022-11-12T23:43:45.905Z,30.45
2022-11-12T23:46:34.514Z,28.17
2022-11-12T23:49:21.397Z,28.00
2022-11-12T23:52:08.836Z,26.65
2022-11-12T23:54:55.749Z,32.90
